sensor_id;sensor_type;location;lat;lon;timestamp;P1;durP1;ratioP1;P2;durP2;ratioP2
43345;SDS011;28937;51.160;4.146;2023-02-14T00:01:45;34.63;;;20.48;;
43345;SDS011;28937;51.160;4.146;2023-02-14T00:04:12;29.75;;;20.73;;
43345;SDS011;28937;51.160;4.146;2023-02-14T00:06:39;28.05;;;20.50;;
43345;SDS011;28937;51.160;4.146;2023-02-14T00:09:05;25.83;;;20.88;;
43345;SDS011;28937;51.160;4.146;2023-02-14T00:11:34;28.38;;;21.75;;
43345;SDS011;28937;51.160;4.146;2023-02-14T00:14:00;28.88;;;21.90;;
43345;SDS011;28937;51.160;4.146;2023-02-14T00:16:44;35.50;;;22.85;;
43345;SDS011;28937;51.160;4.146;2023-02-14T00:19:10;29.77;;;21.90;;
43345;SDS011;28937;51.160;4.146;2023-02-14T00:21:38;27.67;;;22.27;;
43345;SDS011;28937;51.160;4.146;2023-02-14T00:24:06;31.15;;;21.52;;
43345;SDS011;28937;51.160;4.146;2023-02-14T00:26:42;31.83;;;23.20;;
43345;SDS011;28937;51.160;4.146;2023-02-14T00:29:09;30.67;;;22.45;;
43345;SDS011;28937;51.160;4.146;2023-02-14T00:31:37;29.90;;;21.73;;
43345;SDS011;28937;51.160;4.146;2023-02-14T00:34:03;31.25;;;23.13;;
43345;SDS011;28937;51.160;4.146;2023-02-14T00:36:30;31.80;;;21.50;;
43345;SDS011;28937;51.160;4.146;2023-02-14T00:38:56;29.50;;;21.73;;
43345;SDS011;28937;51.160;4.146;2023-02-14T00:41:22;27.20;;;21.55;;
43345;SDS011;28937;51.160;4.146;2023-02-14T00:43:49;28.52;;;23.23;;
43345;SDS011;28937;51.160;4.146;2023-02-14T00:46:16;30.30;;;21.98;;
43345;SDS011;28937;51.160;4.146;2023-02-14T00:48:43;26.95;;;20.88;;
43345;SDS011;28937;51.160;4.146;2023-02-14T00:51:09;26.35;;;20.75;;
43345;SDS011;28937;51.160;4.146;2023-02-14T00:53:36;32.58;;;22.08;;
43345;SDS011;28937;51.160;4.146;2023-02-14T00:56:02;29.42;;;21.15;;
43345;SDS011;28937;51.160;4.146;2023-02-14T00:58:28;27.83;;;21.38;;
43345;SDS011;28937;51.160;4.146;2023-02-14T01:00:54;26.80;;;20.52;;
43345;SDS011;28937;51.160;4.146;2023-02-14T01:03:20;31.63;;;21.85;;
43345;SDS011;28937;51.160;4.146;2023-02-14T01:05:46;29.73;;;22.35;;
43345;SDS011;28937;51.160;4.146;2023-02-14T01:08:13;27.52;;;21.83;;
43345;SDS011;28937;51.160;4.146;2023-02-14T01:10:39;28.85;;;23.40;;
43345;SDS011;28937;51.160;4.146;2023-02-14T01:13:05;28.27;;;22.10;;
43345;SDS011;28937;51.160;4.146;2023-02-14T01:15:31;28.70;;;21.95;;
43345;SDS011;28937;51.160;4.146;2023-02-14T01:17:58;30.38;;;22.83;;
43345;SDS011;28937;51.160;4.146;2023-02-14T01:20:25;28.48;;;22.05;;
43345;SDS011;28937;51.160;4.146;2023-02-14T01:22:51;29.17;;;22.20;;
43345;SDS011;28937;51.160;4.146;2023-02-14T01:25:17;35.40;;;23.98;;
43345;SDS011;28937;51.160;4.146;2023-02-14T01:27:43;29.33;;;21.80;;
43345;SDS011;28937;51.160;4.146;2023-02-14T01:30:09;31.00;;;23.90;;
43345;SDS011;28937;51.160;4.146;2023-02-14T01:32:35;30.35;;;22.58;;
43345;SDS011;28937;51.160;4.146;2023-02-14T01:35:01;29.73;;;23.25;;
43345;SDS011;28937;51.160;4.146;2023-02-14T01:37:28;29.25;;;22.13;;
43345;SDS011;28937;51.160;4.146;2023-02-14T01:39:54;35.25;;;23.92;;
43345;SDS011;28937;51.160;4.146;2023-02-14T01:42:20;33.92;;;24.42;;
43345;SDS011;28937;51.160;4.146;2023-02-14T01:47:12;30.10;;;23.38;;
43345;SDS011;28937;51.160;4.146;2023-02-14T01:49:45;30.38;;;22.30;;
43345;SDS011;28937;51.160;4.146;2023-02-14T01:52:18;30.33;;;23.58;;
43345;SDS011;28937;51.160;4.146;2023-02-14T01:55:00;29.13;;;22.00;;
43345;SDS011;28937;51.160;4.146;2023-02-14T01:57:34;29.58;;;23.55;;
43345;SDS011;28937;51.160;4.146;2023-02-14T02:00:03;29.75;;;23.52;;
43345;SDS011;28937;51.160;4.146;2023-02-14T02:02:49;31.77;;;23.70;;
43345;SDS011;28937;51.160;4.146;2023-02-14T02:05:15;31.08;;;24.27;;
43345;SDS011;28937;51.160;4.146;2023-02-14T02:07:47;28.25;;;23.50;;
43345;SDS011;28937;51.160;4.146;2023-02-14T02:10:14;28.77;;;22.80;;
43345;SDS011;28937;51.160;4.146;2023-02-14T02:12:40;30.52;;;24.50;;
43345;SDS011;28937;51.160;4.146;2023-02-14T02:15:06;27.73;;;23.95;;
43345;SDS011;28937;51.160;4.146;2023-02-14T02:23:00;28.40;;;23.63;;
43345;SDS011;28937;51.160;4.146;2023-02-14T02:25:40;30.17;;;24.92;;
43345;SDS011;28937;51.160;4.146;2023-02-14T02:31:16;30.58;;;24.27;;
43345;SDS011;28937;51.160;4.146;2023-02-14T02:39:40;30.70;;;24.13;;
43345;SDS011;28937;51.160;4.146;2023-02-14T02:45:18;30.30;;;23.90;;
43345;SDS011;28937;51.160;4.146;2023-02-14T02:48:25;31.23;;;24.80;;
43345;SDS011;28937;51.160;4.146;2023-02-14T02:51:03;35.15;;;25.05;;
43345;SDS011;28937;51.160;4.146;2023-02-14T02:53:57;30.48;;;24.48;;
43345;SDS011;28937;51.160;4.146;2023-02-14T02:56:34;33.20;;;24.45;;
43345;SDS011;28937;51.160;4.146;2023-02-14T03:01:48;33.47;;;24.10;;
43345;SDS011;28937;51.160;4.146;2023-02-14T03:04:20;27.33;;;22.63;;
43345;SDS011;28937;51.160;4.146;2023-02-14T03:07:06;29.20;;;23.75;;
43345;SDS011;28937;51.160;4.146;2023-02-14T03:09:51;31.17;;;25.73;;
43345;SDS011;28937;51.160;4.146;2023-02-14T03:15:07;33.60;;;25.52;;
43345;SDS011;28937;51.160;4.146;2023-02-14T03:23:21;28.70;;;25.02;;
43345;SDS011;28937;51.160;4.146;2023-02-14T03:25:56;32.58;;;25.48;;
43345;SDS011;28937;51.160;4.146;2023-02-14T03:28:51;32.05;;;25.58;;
43345;SDS011;28937;51.160;4.146;2023-02-14T03:33:58;32.38;;;26.27;;
43345;SDS011;28937;51.160;4.146;2023-02-14T03:39:21;34.58;;;25.45;;
43345;SDS011;28937;51.160;4.146;2023-02-14T03:42:09;35.30;;;26.20;;
43345;SDS011;28937;51.160;4.146;2023-02-14T03:47:13;34.35;;;26.30;;
43345;SDS011;28937;51.160;4.146;2023-02-14T03:49:44;36.75;;;27.50;;
43345;SDS011;28937;51.160;4.146;2023-02-14T03:52:14;36.67;;;27.48;;
43345;SDS011;28937;51.160;4.146;2023-02-14T03:54:42;38.17;;;27.73;;
43345;SDS011;28937;51.160;4.146;2023-02-14T03:57:15;36.05;;;27.08;;
43345;SDS011;28937;51.160;4.146;2023-02-14T03:59:49;34.05;;;26.65;;
43345;SDS011;28937;51.160;4.146;2023-02-14T04:02:26;37.22;;;25.40;;
43345;SDS011;28937;51.160;4.146;2023-02-14T04:04:53;36.25;;;27.73;;
43345;SDS011;28937;51.160;4.146;2023-02-14T04:07:22;39.63;;;28.80;;
43345;SDS011;28937;51.160;4.146;2023-02-14T04:09:48;43.33;;;30.90;;
43345;SDS011;28937;51.160;4.146;2023-02-14T04:12:15;39.45;;;29.15;;
43345;SDS011;28937;51.160;4.146;2023-02-14T04:14:41;42.28;;;30.42;;
43345;SDS011;28937;51.160;4.146;2023-02-14T04:17:07;40.20;;;29.85;;
43345;SDS011;28937;51.160;4.146;2023-02-14T04:19:51;40.95;;;30.77;;
43345;SDS011;28937;51.160;4.146;2023-02-14T04:22:17;42.35;;;30.27;;
43345;SDS011;28937;51.160;4.146;2023-02-14T04:24:43;40.80;;;29.70;;
43345;SDS011;28937;51.160;4.146;2023-02-14T04:27:09;45.35;;;29.98;;
43345;SDS011;28937;51.160;4.146;2023-02-14T04:29:37;40.78;;;30.17;;
43345;SDS011;28937;51.160;4.146;2023-02-14T04:32:11;39.92;;;29.48;;
43345;SDS011;28937;51.160;4.146;2023-02-14T04:34:39;38.30;;;28.23;;
43345;SDS011;28937;51.160;4.146;2023-02-14T04:37:05;41.13;;;29.58;;
43345;SDS011;28937;51.160;4.146;2023-02-14T04:39:31;38.78;;;29.75;;
43345;SDS011;28937;51.160;4.146;2023-02-14T04:41:57;39.80;;;29.67;;
43345;SDS011;28937;51.160;4.146;2023-02-14T04:44:23;37.58;;;28.75;;
43345;SDS011;28937;51.160;4.146;2023-02-14T04:46:49;40.67;;;30.25;;
43345;SDS011;28937;51.160;4.146;2023-02-14T04:49:15;37.78;;;27.88;;
43345;SDS011;28937;51.160;4.146;2023-02-14T04:51:42;37.58;;;30.05;;
43345;SDS011;28937;51.160;4.146;2023-02-14T04:54:08;38.17;;;28.20;;
43345;SDS011;28937;51.160;4.146;2023-02-14T04:56:33;41.58;;;30.17;;
43345;SDS011;28937;51.160;4.146;2023-02-14T04:58:59;60.97;;;31.77;;
43345;SDS011;28937;51.160;4.146;2023-02-14T05:01:25;40.95;;;29.98;;
43345;SDS011;28937;51.160;4.146;2023-02-14T05:03:51;41.13;;;30.25;;
43345;SDS011;28937;51.160;4.146;2023-02-14T05:06:16;41.85;;;29.55;;
43345;SDS011;28937;51.160;4.146;2023-02-14T05:08:42;42.85;;;30.88;;
43345;SDS011;28937;51.160;4.146;2023-02-14T05:11:08;41.35;;;30.45;;
43345;SDS011;28937;51.160;4.146;2023-02-14T05:13:33;40.60;;;29.17;;
43345;SDS011;28937;51.160;4.146;2023-02-14T05:15:59;37.92;;;29.65;;
43345;SDS011;28937;51.160;4.146;2023-02-14T05:18:25;37.90;;;28.10;;
43345;SDS011;28937;51.160;4.146;2023-02-14T05:20:51;35.63;;;28.85;;
43345;SDS011;28937;51.160;4.146;2023-02-14T05:23:18;35.92;;;27.75;;
43345;SDS011;28937;51.160;4.146;2023-02-14T05:25:48;34.78;;;27.95;;
43345;SDS011;28937;51.160;4.146;2023-02-14T05:28:14;38.00;;;28.70;;
43345;SDS011;28937;51.160;4.146;2023-02-14T05:30:40;35.65;;;27.95;;
43345;SDS011;28937;51.160;4.146;2023-02-14T05:33:06;37.30;;;27.85;;
43345;SDS011;28937;51.160;4.146;2023-02-14T05:35:32;36.33;;;28.02;;
43345;SDS011;28937;51.160;4.146;2023-02-14T05:37:58;34.47;;;27.80;;
43345;SDS011;28937;51.160;4.146;2023-02-14T05:40:24;36.90;;;28.40;;
43345;SDS011;28937;51.160;4.146;2023-02-14T05:42:53;36.83;;;27.33;;
43345;SDS011;28937;51.160;4.146;2023-02-14T05:45:19;34.47;;;25.45;;
43345;SDS011;28937;51.160;4.146;2023-02-14T05:47:46;34.30;;;26.85;;
43345;SDS011;28937;51.160;4.146;2023-02-14T05:50:12;36.80;;;27.60;;
43345;SDS011;28937;51.160;4.146;2023-02-14T05:52:38;32.25;;;25.80;;
43345;SDS011;28937;51.160;4.146;2023-02-14T05:55:04;33.10;;;25.77;;
43345;SDS011;28937;51.160;4.146;2023-02-14T05:57:30;31.67;;;25.05;;
43345;SDS011;28937;51.160;4.146;2023-02-14T05:59:56;33.42;;;26.13;;
43345;SDS011;28937;51.160;4.146;2023-02-14T06:02:21;33.33;;;26.10;;
43345;SDS011;28937;51.160;4.146;2023-02-14T06:04:47;32.28;;;26.33;;
43345;SDS011;28937;51.160;4.146;2023-02-14T06:07:13;36.83;;;26.70;;
43345;SDS011;28937;51.160;4.146;2023-02-14T06:09:39;32.20;;;25.63;;
43345;SDS011;28937;51.160;4.146;2023-02-14T06:12:04;35.90;;;26.77;;
43345;SDS011;28937;51.160;4.146;2023-02-14T06:14:30;31.58;;;25.45;;
43345;SDS011;28937;51.160;4.146;2023-02-14T06:16:56;36.33;;;27.55;;
43345;SDS011;28937;51.160;4.146;2023-02-14T06:19:22;34.13;;;27.50;;
43345;SDS011;28937;51.160;4.146;2023-02-14T06:21:47;34.10;;;26.13;;
43345;SDS011;28937;51.160;4.146;2023-02-14T06:24:13;33.88;;;26.08;;
43345;SDS011;28937;51.160;4.146;2023-02-14T06:26:39;34.33;;;25.45;;
43345;SDS011;28937;51.160;4.146;2023-02-14T06:29:15;35.05;;;25.25;;
43345;SDS011;28937;51.160;4.146;2023-02-14T06:31:41;34.83;;;26.52;;
43345;SDS011;28937;51.160;4.146;2023-02-14T06:34:07;32.58;;;24.10;;
43345;SDS011;28937;51.160;4.146;2023-02-14T06:36:33;35.67;;;25.88;;
43345;SDS011;28937;51.160;4.146;2023-02-14T06:38:59;31.63;;;25.38;;
43345;SDS011;28937;51.160;4.146;2023-02-14T06:41:24;33.45;;;25.20;;
43345;SDS011;28937;51.160;4.146;2023-02-14T06:43:50;31.00;;;24.92;;
43345;SDS011;28937;51.160;4.146;2023-02-14T06:46:16;32.88;;;25.40;;
43345;SDS011;28937;51.160;4.146;2023-02-14T06:48:43;32.00;;;22.40;;
43345;SDS011;28937;51.160;4.146;2023-02-14T06:51:10;39.22;;;25.98;;
43345;SDS011;28937;51.160;4.146;2023-02-14T06:53:36;32.20;;;24.50;;
43345;SDS011;28937;51.160;4.146;2023-02-14T06:56:02;33.53;;;24.38;;
43345;SDS011;28937;51.160;4.146;2023-02-14T06:58:28;32.75;;;24.92;;
43345;SDS011;28937;51.160;4.146;2023-02-14T07:00:54;33.30;;;24.35;;
43345;SDS011;28937;51.160;4.146;2023-02-14T07:03:21;28.95;;;23.15;;
43345;SDS011;28937;51.160;4.146;2023-02-14T07:05:47;31.42;;;23.70;;
43345;SDS011;28937;51.160;4.146;2023-02-14T07:08:13;34.35;;;23.63;;
43345;SDS011;28937;51.160;4.146;2023-02-14T07:10:38;32.25;;;25.05;;
43345;SDS011;28937;51.160;4.146;2023-02-14T07:13:04;31.88;;;23.55;;
43345;SDS011;28937;51.160;4.146;2023-02-14T07:15:30;33.28;;;25.20;;
43345;SDS011;28937;51.160;4.146;2023-02-14T07:17:56;34.88;;;24.67;;
43345;SDS011;28937;51.160;4.146;2023-02-14T07:20:22;30.95;;;24.75;;
43345;SDS011;28937;51.160;4.146;2023-02-14T07:22:48;33.95;;;24.48;;
43345;SDS011;28937;51.160;4.146;2023-02-14T07:25:14;33.35;;;25.33;;
43345;SDS011;28937;51.160;4.146;2023-02-14T07:27:40;31.98;;;23.23;;
43345;SDS011;28937;51.160;4.146;2023-02-14T07:30:06;29.60;;;24.02;;
43345;SDS011;28937;51.160;4.146;2023-02-14T07:32:33;31.85;;;24.15;;
43345;SDS011;28937;51.160;4.146;2023-02-14T07:34:58;29.48;;;24.50;;
43345;SDS011;28937;51.160;4.146;2023-02-14T07:37:24;33.72;;;24.83;;
43345;SDS011;28937;51.160;4.146;2023-02-14T07:39:50;32.08;;;23.90;;
43345;SDS011;28937;51.160;4.146;2023-02-14T07:42:15;30.85;;;24.13;;
43345;SDS011;28937;51.160;4.146;2023-02-14T07:44:41;34.38;;;24.10;;
43345;SDS011;28937;51.160;4.146;2023-02-14T07:47:08;33.75;;;23.65;;
43345;SDS011;28937;51.160;4.146;2023-02-14T07:49:34;30.10;;;24.02;;
43345;SDS011;28937;51.160;4.146;2023-02-14T07:52:00;33.75;;;24.90;;
43345;SDS011;28937;51.160;4.146;2023-02-14T07:54:26;33.13;;;25.65;;
43345;SDS011;28937;51.160;4.146;2023-02-14T07:56:52;36.47;;;24.65;;
43345;SDS011;28937;51.160;4.146;2023-02-14T07:59:17;34.10;;;24.77;;
43345;SDS011;28937;51.160;4.146;2023-02-14T08:01:43;31.63;;;24.98;;
43345;SDS011;28937;51.160;4.146;2023-02-14T08:04:09;30.67;;;23.60;;
43345;SDS011;28937;51.160;4.146;2023-02-14T08:06:37;32.50;;;23.83;;
43345;SDS011;28937;51.160;4.146;2023-02-14T08:09:03;30.45;;;23.45;;
43345;SDS011;28937;51.160;4.146;2023-02-14T08:11:29;32.28;;;24.08;;
43345;SDS011;28937;51.160;4.146;2023-02-14T08:14:13;30.35;;;23.20;;
43345;SDS011;28937;51.160;4.146;2023-02-14T08:16:39;31.55;;;24.80;;
43345;SDS011;28937;51.160;4.146;2023-02-14T08:19:05;31.25;;;23.38;;
43345;SDS011;28937;51.160;4.146;2023-02-14T08:21:30;32.33;;;24.70;;
43345;SDS011;28937;51.160;4.146;2023-02-14T08:23:56;29.98;;;23.63;;
43345;SDS011;28937;51.160;4.146;2023-02-14T08:26:22;32.10;;;24.17;;
43345;SDS011;28937;51.160;4.146;2023-02-14T08:28:48;32.95;;;24.50;;
43345;SDS011;28937;51.160;4.146;2023-02-14T08:31:20;30.02;;;24.17;;
43345;SDS011;28937;51.160;4.146;2023-02-14T08:33:50;34.65;;;24.58;;
43345;SDS011;28937;51.160;4.146;2023-02-14T08:36:15;29.52;;;22.00;;
43345;SDS011;28937;51.160;4.146;2023-02-14T08:38:42;32.42;;;23.80;;
43345;SDS011;28937;51.160;4.146;2023-02-14T08:41:09;29.33;;;22.83;;
43345;SDS011;28937;51.160;4.146;2023-02-14T08:43:36;31.48;;;23.63;;
43345;SDS011;28937;51.160;4.146;2023-02-14T08:46:02;30.02;;;23.63;;
43345;SDS011;28937;51.160;4.146;2023-02-14T08:48:27;36.53;;;25.23;;
43345;SDS011;28937;51.160;4.146;2023-02-14T08:50:53;34.03;;;24.58;;
43345;SDS011;28937;51.160;4.146;2023-02-14T08:53:19;35.10;;;24.73;;
43345;SDS011;28937;51.160;4.146;2023-02-14T08:55:46;33.50;;;24.60;;
43345;SDS011;28937;51.160;4.146;2023-02-14T08:58:13;37.97;;;26.05;;
43345;SDS011;28937;51.160;4.146;2023-02-14T09:00:39;36.88;;;25.65;;
43345;SDS011;28937;51.160;4.146;2023-02-14T09:03:05;34.08;;;25.30;;
43345;SDS011;28937;51.160;4.146;2023-02-14T09:05:32;38.13;;;26.92;;
43345;SDS011;28937;51.160;4.146;2023-02-14T09:07:58;36.22;;;25.58;;
43345;SDS011;28937;51.160;4.146;2023-02-14T09:10:25;35.03;;;23.63;;
43345;SDS011;28937;51.160;4.146;2023-02-14T09:12:52;36.17;;;26.88;;
43345;SDS011;28937;51.160;4.146;2023-02-14T09:15:18;34.42;;;23.90;;
43345;SDS011;28937;51.160;4.146;2023-02-14T09:17:43;32.20;;;25.08;;
43345;SDS011;28937;51.160;4.146;2023-02-14T09:20:10;32.25;;;24.40;;
43345;SDS011;28937;51.160;4.146;2023-02-14T09:22:37;30.67;;;23.67;;
43345;SDS011;28937;51.160;4.146;2023-02-14T09:25:03;26.70;;;21.05;;
43345;SDS011;28937;51.160;4.146;2023-02-14T09:27:29;36.08;;;25.67;;
43345;SDS011;28937;51.160;4.146;2023-02-14T09:29:56;29.02;;;22.50;;
43345;SDS011;28937;51.160;4.146;2023-02-14T09:32:22;26.00;;;20.92;;
43345;SDS011;28937;51.160;4.146;2023-02-14T09:34:47;41.88;;;33.05;;
43345;SDS011;28937;51.160;4.146;2023-02-14T09:37:13;33.45;;;26.00;;
43345;SDS011;28937;51.160;4.146;2023-02-14T09:39:39;33.55;;;26.65;;
43345;SDS011;28937;51.160;4.146;2023-02-14T09:42:21;31.25;;;25.05;;
43345;SDS011;28937;51.160;4.146;2023-02-14T09:50:09;38.67;;;28.73;;
43345;SDS011;28937;51.160;4.146;2023-02-14T09:52:48;38.10;;;29.15;;
43345;SDS011;28937;51.160;4.146;2023-02-14T09:55:18;37.30;;;28.63;;
43345;SDS011;28937;51.160;4.146;2023-02-14T09:57:47;37.17;;;28.63;;
43345;SDS011;28937;51.160;4.146;2023-02-14T10:00:28;36.58;;;28.10;;
43345;SDS011;28937;51.160;4.146;2023-02-14T10:03:41;37.67;;;29.05;;
43345;SDS011;28937;51.160;4.146;2023-02-14T10:11:39;40.53;;;29.50;;
43345;SDS011;28937;51.160;4.146;2023-02-14T10:14:11;38.58;;;29.73;;
43345;SDS011;28937;51.160;4.146;2023-02-14T10:16:58;43.58;;;31.42;;
43345;SDS011;28937;51.160;4.146;2023-02-14T10:22:07;51.35;;;36.30;;
43345;SDS011;28937;51.160;4.146;2023-02-14T10:24:40;46.92;;;32.47;;
43345;SDS011;28937;51.160;4.146;2023-02-14T10:27:22;40.78;;;29.90;;
43345;SDS011;28937;51.160;4.146;2023-02-14T10:29:53;38.25;;;29.80;;
43345;SDS011;28937;51.160;4.146;2023-02-14T10:32:22;43.00;;;31.48;;
43345;SDS011;28937;51.160;4.146;2023-02-14T10:35:05;43.47;;;31.30;;
43345;SDS011;28937;51.160;4.146;2023-02-14T10:54:37;40.42;;;30.65;;
43345;SDS011;28937;51.160;4.146;2023-02-14T10:59:56;39.85;;;31.08;;
43345;SDS011;28937;51.160;4.146;2023-02-14T11:02:38;38.60;;;31.50;;
43345;SDS011;28937;51.160;4.146;2023-02-14T11:05:14;37.92;;;30.45;;
43345;SDS011;28937;51.160;4.146;2023-02-14T11:08:11;41.13;;;29.67;;
43345;SDS011;28937;51.160;4.146;2023-02-14T11:10:39;45.15;;;32.10;;
43345;SDS011;28937;51.160;4.146;2023-02-14T11:16:00;50.47;;;32.67;;
43345;SDS011;28937;51.160;4.146;2023-02-14T11:18:29;41.78;;;31.15;;
43345;SDS011;28937;51.160;4.146;2023-02-14T11:26:09;39.90;;;30.80;;
43345;SDS011;28937;51.160;4.146;2023-02-14T11:29:15;45.28;;;31.48;;
43345;SDS011;28937;51.160;4.146;2023-02-14T11:31:40;45.03;;;30.73;;
43345;SDS011;28937;51.160;4.146;2023-02-14T11:37:00;38.05;;;30.35;;
43345;SDS011;28937;51.160;4.146;2023-02-14T11:39:32;44.92;;;32.03;;
43345;SDS011;28937;51.160;4.146;2023-02-14T11:42:02;40.75;;;32.80;;
43345;SDS011;28937;51.160;4.146;2023-02-14T11:44:30;41.20;;;31.20;;
43345;SDS011;28937;51.160;4.146;2023-02-14T11:47:15;57.83;;;33.97;;
43345;SDS011;28937;51.160;4.146;2023-02-14T11:49:54;44.92;;;34.22;;
43345;SDS011;28937;51.160;4.146;2023-02-14T11:52:23;40.53;;;32.20;;
43345;SDS011;28937;51.160;4.146;2023-02-14T11:54:53;40.65;;;28.83;;
43345;SDS011;28937;51.160;4.146;2023-02-14T11:57:32;38.47;;;28.88;;
43345;SDS011;28937;51.160;4.146;2023-02-14T12:00:09;38.47;;;29.70;;
43345;SDS011;28937;51.160;4.146;2023-02-14T12:02:43;37.97;;;28.70;;
43345;SDS011;28937;51.160;4.146;2023-02-14T12:05:34;37.35;;;29.67;;
43345;SDS011;28937;51.160;4.146;2023-02-14T12:08:08;37.17;;;29.00;;
43345;SDS011;28937;51.160;4.146;2023-02-14T12:10:35;36.08;;;29.92;;
43345;SDS011;28937;51.160;4.146;2023-02-14T12:13:23;37.75;;;29.45;;
43345;SDS011;28937;51.160;4.146;2023-02-14T12:15:53;38.55;;;28.35;;
43345;SDS011;28937;51.160;4.146;2023-02-14T12:24:11;22.83;;;17.98;;
43345;SDS011;28937;51.160;4.146;2023-02-14T12:26:37;26.15;;;18.52;;
43345;SDS011;28937;51.160;4.146;2023-02-14T12:31:45;30.30;;;24.02;;
43345;SDS011;28937;51.160;4.146;2023-02-14T12:34:12;35.50;;;25.40;;
43345;SDS011;28937;51.160;4.146;2023-02-14T12:39:36;40.08;;;31.73;;
43345;SDS011;28937;51.160;4.146;2023-02-14T12:42:34;38.80;;;31.67;;
43345;SDS011;28937;51.160;4.146;2023-02-14T12:53:58;41.92;;;30.70;;
43345;SDS011;28937;51.160;4.146;2023-02-14T12:59:43;39.97;;;30.80;;
43345;SDS011;28937;51.160;4.146;2023-02-14T13:02:42;40.70;;;28.80;;
43345;SDS011;28937;51.160;4.146;2023-02-14T13:14:14;32.85;;;24.85;;
43345;SDS011;28937;51.160;4.146;2023-02-14T13:19:12;35.78;;;27.10;;
43345;SDS011;28937;51.160;4.146;2023-02-14T13:21:52;26.02;;;20.13;;
43345;SDS011;28937;51.160;4.146;2023-02-14T13:24:20;29.55;;;21.63;;
43345;SDS011;28937;51.160;4.146;2023-02-14T13:26:50;35.58;;;27.00;;
43345;SDS011;28937;51.160;4.146;2023-02-14T13:29:20;31.25;;;24.20;;
43345;SDS011;28937;51.160;4.146;2023-02-14T13:31:49;34.40;;;27.30;;
43345;SDS011;28937;51.160;4.146;2023-02-14T13:34:34;33.20;;;26.23;;
43345;SDS011;28937;51.160;4.146;2023-02-14T13:37:05;33.78;;;25.55;;
43345;SDS011;28937;51.160;4.146;2023-02-14T13:39:35;36.75;;;28.20;;
43345;SDS011;28937;51.160;4.146;2023-02-14T13:42:11;32.72;;;26.65;;
43345;SDS011;28937;51.160;4.146;2023-02-14T13:47:20;33.97;;;23.98;;
43345;SDS011;28937;51.160;4.146;2023-02-14T13:55:27;36.30;;;27.30;;
43345;SDS011;28937;51.160;4.146;2023-02-14T13:58:05;35.75;;;27.83;;
43345;SDS011;28937;51.160;4.146;2023-02-14T14:00:43;35.58;;;29.85;;
43345;SDS011;28937;51.160;4.146;2023-02-14T14:08:35;37.38;;;28.30;;
43345;SDS011;28937;51.160;4.146;2023-02-14T14:16:55;36.50;;;27.92;;
43345;SDS011;28937;51.160;4.146;2023-02-14T14:22:00;36.47;;;29.08;;
43345;SDS011;28937;51.160;4.146;2023-02-14T14:29:27;34.30;;;25.58;;
43345;SDS011;28937;51.160;4.146;2023-02-14T14:32:06;37.45;;;25.35;;
43345;SDS011;28937;51.160;4.146;2023-02-14T14:35:20;36.15;;;27.80;;
43345;SDS011;28937;51.160;4.146;2023-02-14T14:37:50;36.40;;;26.65;;
43345;SDS011;28937;51.160;4.146;2023-02-14T14:40:22;32.58;;;25.27;;
43345;SDS011;28937;51.160;4.146;2023-02-14T14:42:51;39.22;;;27.55;;
43345;SDS011;28937;51.160;4.146;2023-02-14T14:45:19;36.85;;;25.48;;
43345;SDS011;28937;51.160;4.146;2023-02-14T14:47:48;37.00;;;27.02;;
43345;SDS011;28937;51.160;4.146;2023-02-14T14:50:21;34.55;;;27.95;;
43345;SDS011;28937;51.160;4.146;2023-02-14T14:52:51;33.20;;;25.08;;
43345;SDS011;28937;51.160;4.146;2023-02-14T14:55:21;34.70;;;26.45;;
43345;SDS011;28937;51.160;4.146;2023-02-14T14:57:53;32.78;;;25.63;;
43345;SDS011;28937;51.160;4.146;2023-02-14T15:05:34;32.05;;;25.40;;
43345;SDS011;28937;51.160;4.146;2023-02-14T15:11:11;36.55;;;25.98;;
43345;SDS011;28937;51.160;4.146;2023-02-14T15:14:25;30.45;;;22.17;;
43345;SDS011;28937;51.160;4.146;2023-02-14T15:16:53;33.67;;;24.85;;
43345;SDS011;28937;51.160;4.146;2023-02-14T15:19:28;33.25;;;20.05;;
43345;SDS011;28937;51.160;4.146;2023-02-14T15:22:05;20.52;;;15.40;;
43345;SDS011;28937;51.160;4.146;2023-02-14T15:24:41;31.25;;;23.58;;
43345;SDS011;28937;51.160;4.146;2023-02-14T15:27:10;27.75;;;18.65;;
43345;SDS011;28937;51.160;4.146;2023-02-14T15:32:23;28.65;;;18.25;;
43345;SDS011;28937;51.160;4.146;2023-02-14T15:34:50;28.65;;;19.70;;
43345;SDS011;28937;51.160;4.146;2023-02-14T15:37:17;26.88;;;17.60;;
43345;SDS011;28937;51.160;4.146;2023-02-14T15:39:47;25.55;;;19.38;;
43345;SDS011;28937;51.160;4.146;2023-02-14T15:42:30;31.92;;;24.48;;
43345;SDS011;28937;51.160;4.146;2023-02-14T15:45:13;26.92;;;20.55;;
43345;SDS011;28937;51.160;4.146;2023-02-14T15:47:39;33.22;;;23.77;;
43345;SDS011;28937;51.160;4.146;2023-02-14T15:50:15;35.22;;;24.25;;
43345;SDS011;28937;51.160;4.146;2023-02-14T15:52:44;34.75;;;25.50;;
43345;SDS011;28937;51.160;4.146;2023-02-14T15:55:13;27.55;;;19.85;;
43345;SDS011;28937;51.160;4.146;2023-02-14T15:57:42;26.98;;;19.52;;
43345;SDS011;28937;51.160;4.146;2023-02-14T16:00:15;27.48;;;20.95;;
43345;SDS011;28937;51.160;4.146;2023-02-14T16:02:42;26.70;;;19.42;;
43345;SDS011;28937;51.160;4.146;2023-02-14T16:05:21;29.63;;;19.50;;
43345;SDS011;28937;51.160;4.146;2023-02-14T16:08:06;30.20;;;23.25;;
43345;SDS011;28937;51.160;4.146;2023-02-14T16:14:18;36.20;;;27.70;;
43345;SDS011;28937;51.160;4.146;2023-02-14T16:17:03;33.95;;;27.00;;
43345;SDS011;28937;51.160;4.146;2023-02-14T16:21:58;35.20;;;27.35;;
43345;SDS011;28937;51.160;4.146;2023-02-14T16:24:23;34.10;;;25.30;;
43345;SDS011;28937;51.160;4.146;2023-02-14T16:26:49;34.22;;;28.05;;
43345;SDS011;28937;51.160;4.146;2023-02-14T16:29:15;40.35;;;29.90;;
43345;SDS011;28937;51.160;4.146;2023-02-14T16:34:15;33.65;;;26.88;;
43345;SDS011;28937;51.160;4.146;2023-02-14T16:36:40;36.05;;;29.60;;
43345;SDS011;28937;51.160;4.146;2023-02-14T16:39:14;39.33;;;29.73;;
43345;SDS011;28937;51.160;4.146;2023-02-14T16:41:42;38.58;;;26.75;;
43345;SDS011;28937;51.160;4.146;2023-02-14T16:44:13;35.28;;;26.70;;
43345;SDS011;28937;51.160;4.146;2023-02-14T16:46:41;38.13;;;29.02;;
43345;SDS011;28937;51.160;4.146;2023-02-14T16:49:07;35.40;;;28.17;;
43345;SDS011;28937;51.160;4.146;2023-02-14T16:51:34;35.65;;;26.63;;
43345;SDS011;28937;51.160;4.146;2023-02-14T16:54:05;34.30;;;28.60;;
43345;SDS011;28937;51.160;4.146;2023-02-14T16:56:57;36.03;;;27.25;;
43345;SDS011;28937;51.160;4.146;2023-02-14T16:59:24;37.80;;;27.45;;
43345;SDS011;28937;51.160;4.146;2023-02-14T17:01:50;35.70;;;28.05;;
43345;SDS011;28937;51.160;4.146;2023-02-14T17:04:15;38.20;;;27.95;;
43345;SDS011;28937;51.160;4.146;2023-02-14T17:06:42;38.25;;;28.80;;
43345;SDS011;28937;51.160;4.146;2023-02-14T17:09:12;40.33;;;29.98;;
43345;SDS011;28937;51.160;4.146;2023-02-14T17:11:42;39.85;;;30.20;;
43345;SDS011;28937;51.160;4.146;2023-02-14T17:14:13;37.97;;;29.65;;
43345;SDS011;28937;51.160;4.146;2023-02-14T17:16:41;38.22;;;29.63;;
43345;SDS011;28937;51.160;4.146;2023-02-14T17:19:07;38.10;;;30.73;;
43345;SDS011;28937;51.160;4.146;2023-02-14T17:21:33;38.20;;;30.85;;
43345;SDS011;28937;51.160;4.146;2023-02-14T17:23:59;40.58;;;30.77;;